Time;durP1;ratioP1;P1;durP2;ratioP2;P2;SDS_P1;SDS_P2;PMS_P1;PMS_P2;Temp;Humidity;BMP_temperature;BMP_pressure;BME280_temperature;BME280_humidity;BME280_pressure;Samples;Min_cycle;Max_cycle;Signal;HPM_P1;HPM_P2
2023/01/07 00:10:31;;;;;;;7.22;4.20;;;;;;;6.10;78.89;100572.94;30985429;28;96738;-66
2023/01/07 00:25:31;;;;;;;9.90;3.63;;;;;;;5.84;79.31;100583.06;30984633;28;96613;-66
2023/01/07 00:40:32;;;;;;;7.35;4.47;;;;;;;5.55;78.93;100591.63;30981907;28;96457;-67
2023/01/07 00:55:32;;;;;;;6.15;3.90;;;;;;;5.35;79.68;100601.19;30980753;28;96940;-66
2023/01/07 01:10:33;;;;;;;9.23;4.03;;;;;;;5.53;80.60;100601.47;30979690;28;97156;-67
2023/01/07 01:25:33;;;;;;;8.13;4.53;;;;;;;5.67;80.28;100610.94;30978743;28;97424;-67
2023/01/07 01:40:34;;;;;;;7.90;4.60;;;;;;;5.70;80.17;100599.22;30977625;28;97469;-67
2023/01/07 01:55:39;;;;;;;9.00;4.70;;;;;;;5.65;80.58;100591.69;30975680;28;98480;-68
2023/01/07 02:10:39;;;;;;;7.32;4.55;;;;;;;5.33;80.52;100576.72;30974748;28;96616;-69
2023/01/07 02:26:08;;;;;;;10.05;5.25;;;;;;;5.11;80.53;100563.59;30990019;28;96625;-68
2023/01/07 02:41:21;;;;;;;6.75;4.68;;;;;;;5.01;81.17;100552.94;30994338;28;98331;-69
2023/01/07 02:56:29;;;;;;;9.52;5.70;;;;;;;5.16;81.34;100578.09;30992718;28;98144;-67
2023/01/07 03:11:38;;;;;;;8.57;4.55;;;;;;;5.16;80.88;100569.34;30991058;28;96713;-67
2023/01/07 03:26:46;;;;;;;14.98;9.23;;;;;;;5.07;81.08;100566.50;30989507;28;96755;-67
2023/01/07 03:57:15;;;;;;;13.48;8.40;;;;;;;4.86;80.89;100557.66;30985027;28;97197;-67
2023/01/07 04:12:16;;;;;;;14.95;9.60;;;;;;;4.53;80.53;100562.06;30984044;28;97305;-68
2023/01/07 04:27:17;;;;;;;20.23;14.05;;;;;;;4.12;81.12;100551.16;30983340;28;96817;-67
2023/01/07 04:42:17;;;;;;;14.27;9.73;;;;;;;3.87;81.37;100554.88;30979162;28;97899;-66
2023/01/07 04:57:18;;;;;;;13.18;6.65;;;;;;;3.79;81.47;100567.78;30978476;28;96691;-67
2023/01/07 05:12:18;;;;;;;8.48;5.65;;;;;;;4.11;82.47;100569.75;30977676;28;96643;-66
2023/01/07 05:27:18;;;;;;;11.27;6.18;;;;;;;4.29;81.87;100549.84;30977634;28;97318;-68
2023/01/07 05:42:19;;;;;;;10.40;6.03;;;;;;;3.99;80.71;100550.44;30976161;28;97454;-68
2023/01/07 05:57:19;;;;;;;10.80;6.03;;;;;;;3.90;81.93;100560.72;30986396;28;96697;-67
2023/01/07 06:12:19;;;;;;;13.63;7.55;;;;;;;4.09;81.87;100567.22;30995729;28;96702;-66
2023/01/07 06:27:20;;;;;;;9.55;6.63;;;;;;;4.09;81.75;100567.22;30993723;28;96718;-67
2023/01/07 06:42:20;;;;;;;10.13;6.32;;;;;;;4.04;81.59;100572.84;30992030;28;97208;-67
2023/01/07 06:57:21;;;;;;;14.02;7.13;;;;;;;4.17;81.56;100580.66;30982772;28;96971;-66
2023/01/07 07:12:21;;;;;;;12.32;6.95;;;;;;;4.45;81.80;100572.38;30980811;28;98399;-66
2023/01/07 07:27:21;;;;;;;14.48;7.20;;;;;;;4.78;81.25;100570.66;30979247;28;96695;-66
2023/01/07 07:42:22;;;;;;;13.27;7.65;;;;;;;5.05;81.45;100564.94;30978122;28;96661;-66
2023/01/07 07:57:22;;;;;;;11.77;6.35;;;;;;;5.30;81.10;100555.81;30940102;28;1201267;-66
2023/01/07 08:12:23;;;;;;;11.45;6.78;;;;;;;5.62;80.18;100548.81;30981639;28;96525;-66
2023/01/07 08:27:23;;;;;;;21.02;10.98;;;;;;;6.95;80.50;100549.63;30981344;28;96708;-67
2023/01/07 08:42:23;;;;;;;12.70;7.05;;;;;;;7.23;79.27;100551.59;30980040;28;98210;-68
2023/01/07 08:57:24;;;;;;;13.30;8.35;;;;;;;6.93;78.73;100572.78;30978441;28;96725;-69
2023/01/07 09:12:24;;;;;;;11.68;6.65;;;;;;;6.94;78.59;100578.91;30977109;28;96681;-65
2023/01/07 09:27:28;;;;;;;11.13;6.97;;;;;;;7.33;78.50;100573.66;30976908;28;96803;-67
2023/01/07 09:42:42;;;;;;;10.57;6.97;;;;;;;8.62;77.69;100583.81;30975202;28;97123;-68
2023/01/07 09:57:42;;;;;;;14.87;8.83;;;;;;;8.79;76.87;100571.56;30972968;28;97432;-68
2023/01/07 10:13:08;;;;;;;9.50;6.65;;;;;;;8.90;76.62;100550.09;30971572;28;96784;-65
2023/01/07 10:28:16;;;;;;;10.37;7.00;;;;;;;12.71;71.17;100534.84;30971659;28;97372;-66
2023/01/07 10:43:38;;;;;;;13.33;7.93;;;;;;;12.64;69.93;100523.19;30979459;28;97025;-69
2023/01/07 10:58:42;;;;;;;10.33;6.60;;;;;;;11.12;70.72;100507.84;30989242;28;96882;-66
2023/01/07 11:13:57;;;;;;;8.97;6.47;;;;;;;11.53;70.40;100483.00;30987672;28;97408;-68
2023/01/07 11:29:13;;;;;;;10.60;6.07;;;;;;;12.34;68.12;100461.56;30988225;28;96902;-67
2023/01/07 11:44:15;;;;;;;8.10;5.00;;;;;;;13.36;65.70;100447.16;30984951;28;96810;-67
2023/01/07 11:59:18;;;;;;;7.63;5.10;;;;;;;13.05;64.19;100437.34;30982857;28;96789;-66
2023/01/07 12:14:33;;;;;;;6.47;4.27;;;;;;;18.59;58.07;100432.50;30982547;28;96832;-69
2023/01/07 12:29:43;;;;;;;6.47;4.40;;;;;;;23.06;47.15;100416.06;30982065;28;96827;-68
2023/01/07 12:44:48;;;;;;;6.03;4.40;;;;;;;21.61;44.79;100399.00;30980092;28;97131;-67
2023/01/07 13:00:01;;;;;;;5.90;4.20;;;;;;;26.42;39.20;100380.59;30977700;28;97293;-66
2023/01/07 13:15:09;;;;;;;5.90;4.20;;;;;;;27.30;32.00;100356.75;30976760;28;97477;-68
2023/01/07 13:30:29;;;;;;;6.80;4.47;;;;;;;27.17;32.05;100336.28;30975314;28;96844;-66
2023/01/07 13:45:32;;;;;;;4.57;3.37;;;;;;;29.47;27.02;100342.31;30973456;28;97411;-70
2023/01/07 14:00:37;;;;;;;5.33;3.50;;;;;;;28.96;26.45;100334.63;30972233;28;96644;-69
2023/01/07 14:15:43;;;;;;;6.13;3.43;;;;;;;20.71;33.35;100336.84;30978787;28;96940;-68
2023/01/07 14:30:51;;;;;;;7.43;4.70;;;;;;;16.17;39.85;100347.78;30992837;28;96689;-68
2023/01/07 14:45:53;;;;;;;8.63;5.27;;;;;;;15.47;42.79;100334.47;30990367;28;97067;-68
2023/01/07 15:00:58;;;;;;;;;;;;;;;13.62;45.55;100328.09;30990249;28;96567;-69
2023/01/07 15:16:01;;;;;;;21.07;11.73;;;;;;;11.40;49.65;100312.81;30988745;28;97395;-69
2023/01/07 15:31:13;;;;;;;26.40;13.60;;;;;;;10.02;53.64;100302.09;30985291;28;96782;-67
2023/01/07 15:46:13;;;;;;;18.70;11.13;;;;;;;8.81;56.54;100294.13;30985044;28;97058;-67
2023/01/07 16:01:24;;;;;;;21.23;12.50;;;;;;;7.95;59.19;100278.81;30984432;28;96700;-67
2023/01/07 16:16:25;;;;;;;23.27;14.07;;;;;;;7.26;60.94;100265.97;30981091;28;100032;-68
2023/01/07 16:31:28;;;;;;;25.63;14.80;;;;;;;6.77;63.02;100276.75;30982277;28;97333;-67
2023/01/07 16:46:37;;;;;;;31.93;16.63;;;;;;;6.21;64.88;100272.25;30977400;28;96700;-68
2023/01/07 17:01:37;;;;;;;33.92;17.60;;;;;;;5.74;65.90;100263.13;30978561;28;96753;-69
2023/01/07 17:16:39;;;;;;;43.80;24.67;;;;;;;5.43;67.61;100247.34;30977172;28;97598;-69
2023/01/07 17:31:39;;;;;;;51.45;26.13;;;;;;;5.15;68.82;100241.00;30976665;28;96834;-67
2023/01/07 17:46:40;;;;;;;46.90;26.17;;;;;;;4.88;69.74;100247.72;30977871;28;97280;-67
2023/01/07 18:01:41;;;;;;;44.47;26.70;;;;;;;4.73;70.80;100252.50;30995729;28;96674;-68
2023/01/07 18:16:43;;;;;;;44.83;24.17;;;;;;;4.62;71.81;100234.13;30993807;28;96738;-66
2023/01/07 18:31:44;;;;;;;39.15;21.27;;;;;;;4.40;72.21;100225.38;30992370;28;97383;-68
2023/01/07 18:46:45;;;;;;;48.20;27.52;;;;;;;4.23;73.01;100228.59;30992937;28;97489;-68
2023/01/07 19:01:45;;;;;;;59.35;26.85;;;;;;;4.02;73.50;100220.69;30990095;28;96733;-68
2023/01/07 19:16:45;;;;;;;45.10;24.77;;;;;;;3.87;74.34;100218.34;30987719;28;96903;-68
2023/01/07 19:31:46;;;;;;;43.03;23.65;;;;;;;3.77;74.70;100211.31;30987286;28;97215;-68
2023/01/07 19:46:47;;;;;;;50.85;26.50;;;;;;;3.60;75.36;100199.53;30985007;28;96779;-67
2023/01/07 20:01:48;;;;;;;45.47;24.83;;;;;;;3.48;75.89;100188.19;30983488;28;96579;-68
2023/01/07 20:16:49;;;;;;;50.38;27.92;;;;;;;3.28;76.32;100193.28;30981679;28;96761;-68
2023/01/07 20:31:49;;;;;;;50.92;28.33;;;;;;;3.05;76.58;100168.78;30982661;28;97255;-69
2023/01/07 20:46:51;;;;;;;51.55;28.77;;;;;;;2.90;77.13;100152.41;30978497;28;96667;-68
2023/01/07 21:01:51;;;;;;;56.45;31.02;;;;;;;2.84;77.12;100134.47;30978191;28;97337;-68
2023/01/07 21:16:51;;;;;;;55.85;30.80;;;;;;;2.62;77.57;100104.59;30977949;28;96906;-68
2023/01/07 21:31:52;;;;;;;54.53;29.50;;;;;;;2.50;78.54;100081.88;30976015;28;97088;-67
2023/01/07 21:46:52;;;;;;;57.78;29.33;;;;;;;2.41;78.27;100058.97;30973774;28;97531;-68
2023/01/07 22:01:53;;;;;;;48.40;27.67;;;;;;;2.27;79.14;100058.25;30972873;28;96778;-67
2023/01/07 22:16:54;;;;;;;45.97;23.77;;;;;;;2.18;79.03;100037.94;30973307;28;97507;-68
2023/01/07 22:31:54;;;;;;;46.10;24.88;;;;;;;2.15;79.70;100039.00;30972714;28;96676;-68
2023/01/07 22:46:55;;;;;;;41.90;22.58;;;;;;;2.02;79.76;100007.63;30993763;28;96696;-68
2023/01/07 23:01:56;;;;;;;45.08;22.75;;;;;;;1.83;79.70;100010.81;30993703;28;96559;-68
2023/01/07 23:16:58;;;;;;;44.30;23.58;;;;;;;1.63;80.12;100003.66;30990909;28;96496;-67
2023/01/07 23:31:58;;;;;;;45.42;22.73;;;;;;;1.49;80.82;99996.78;30989972;28;97686;-67
2023/01/07 23:46:59;;;;;;;40.00;22.55;;;;;;;1.47;80.41;99962.78;30988392;28;96728;-68
